気象予報士の航空気象 2011年02月

*All archives   *Admin

スポンサーサイト

上記の広告は1ヶ月以上更新のないブログに表示されています。
新しい記事を書く事で広告が消せます。
--:--  |  スポンサー広告  |  EDIT  |  Top↑

2011.02.28 (Mon)

GS GR 雪あられ?

 2月最後の東京、羽田空港では、あられが降りました。


漢字で”霰”、GSです。ガススタではありません。


漢字から推測するに、雪が散っているように見えるからでしょうか?


おかしのあられの語源は、降るあられに形が似ているからではないかという説があります。



ANAのあられ


 午後2時のmetar、羽田です。


RJTT 280500Z 36019KT 9000 -SHRAGS FEW008 BKN010 BKN015 04/02 Q1013 TEMPO FEW006 BKN008


RAGSですから、雨のほうが多いあられを伴った降水という意味になります。


 ここで、雹(ひょう)と霰(あられ)の違いを明示します。いづれもうぃきより抜粋。

--------------------------
霰(あられ)は、雲から降る直径5mm未満の氷の粒のこと。5mm以上のものは雹(ひょう)と呼ばれ、分類上異なる。

雹(ひょう)は、積乱雲から降る直径5mm以上の氷の粒のこと。直径5mm未満のものは霰と呼ばれ区別される。
--------------------------

積乱雲の中で、何度も何度も雪や氷、過冷却水滴で包んでいくから、”雹”となるのでしょうか?


天気記号はGR。



こんなにためになる気象の話



 午後3時のmetar


RJTT 280600Z 36017KT 9000 -SHRAGS FEW008 SCT010 BKN015 04/02 Q1014 TEMPO 4000 -RASN BR FEW006 BKN009 RMK 1ST008 3ST010 7CU015 A2994 SMALL HAIL


RMK欄にSMALL HAILの表記。


 日本語では、ひょうとあられの区別がありますが、英語にはありません。


二つとも”hail”です。


そのため、”Hail”は「ひょう」、”Small Hail”は「あられ」を意味するのではないかと考えます。


 
ブログランキングに参加しています。
にほんブログ村 環境ブログ 天気・気象学へ
にほんブログ村
応援クリックをおねがします。


以下、アフィリエイトサイトです。










スポンサーサイト
22:32  |  気象・天気  |  TB(0)  |  CM(0)  |  EDIT  |  Top↑

2011.02.15 (Tue)

関東 大雪 SNRAとRASNとは?

雪と鉄道



昨晩から降った雪は、交通機関へかなりの影響を出しました。


東北新幹線や中央線などが止まり、高速道路は通行止め。


雪対策をしていない放置された車も見ました。


羽田空港では、欠航や大幅な遅延は発生しなかったようです。


METARを追いかけてみましょう

RJTT 140930Z 01013KT 9000 -RA BKN010 04/01 Q1018
   TEMPO FM1100 4000 -RA FEW006 BKN009
   RMK 7ST010 A3008 P/RR
午後6時30分、雨が降り続けています。気温は4度。


RJTT 141000Z 36014KT 8000 RASN FEW008 BKN009 03/01 Q1018
   TEMPO FM1100 4000 -RASN RMK 1ST008 7ST009 A3007
午後7時、みぞれに変わります。みぞれって、べちょっとしたイメージが湧くのに、漢字では「霙」、尖がってる印象を持ちます。


RJTT 141117Z 36011KT 4500 -SNRA BR FEW005 BKN007 BKN012 03/01
   Q1017 RMK 1ST005 6ST007 7SC012 A3004
午後8時17分、特別観測にて、「RASN」が「SNRA」に変わります。みぞれに変わりはありません。雪が多いか雨が多いかだけです。


RJTT 141200Z 34010KT 1500 R34L/P1800N R22/P1800N R34R/P1800N
   R23/P1800N -SN BR FEW003 BKN005 01/M01 Q1016 TEMPO FM1300
   34020G32KT RMK 2ST003 7ST005 A3003
午後9時、ついに雪に変わりました。視程がぐんと落ちます。


RJTT 141700Z 33014KT 6000 -SNRA FEW006 BKN009 BKN015 02/00
   Q1012 TEMPO 35020G30KT 3000 -SHSN
午前2時、降り続けた雪は、「SNRA」の雪の多いみぞれに変わりました。


RJTT 141800Z 32012KT 4500 -RASN BR FEW005 BKN008 BKN012
   01/M00 Q1012 TEMPO 35020G30KT RMK 1ST005 5ST008 6SC012
   A2991
午前3時、雨のほうが多い「RASN」に変わりました。


RJTT 141923Z 34015KT 9999 -RA SCT010 BKN025 BKN040 03/01 Q1013
   RMK 3ST010 5SC025 7SC040 A2993
午前4時23分、特別観測にて、雨にかわりました。夜中ですが、気温は3度に上昇。


夜中に雪から雨に変わったため、朝起きたときには、関東南部の雪はべちょっとしたものになってしまいました。


 さて、わかりにくい「RASN」と「SNRA」の違いですが、結局は雨が多いか、雪が多いかだけです。「RASN」雨多め、「SNRA」雪多め。

詳しく述べると、以下になります。

みぞれが観測され、

1.地上気温が氷点より高い場合。
雨の割合が多い場合、「RASN」
雪の割合が多い場合、「SNRA」

2.地上気温が氷点以下の場合、
雪ではない、みぞれや雨はすべて「FZRA」着氷性の雨、日本語では適切な言葉はありません。

雨氷や凍雨ではありません。うぃきを参照してください。


雨氷 ←くりっく

凍雨 ←くりっく
 
ブログランキングに参加しています。
にほんブログ村 環境ブログ 天気・気象学へ
にほんブログ村
応援クリックをおねがします。


以下、アフィリエイトサイトです。










21:02  |  気象・天気  |  TB(0)  |  CM(0)  |  EDIT  |  Top↑

2011.02.11 (Fri)

東京 都心 雪の予報

RJTT 101444Z 1015/1118 36010KT 9999 FEW009 BKN015 BKN020
BECMG 1017/1019 4000 -SN
TEMPO 1019/1024 1200 -SN FEW004 BKN006 BKN010
BECMG 1103/1106 6000 -SNRA
TEMPO 1106/1112 4000 -SN BKN008 BKN012



東京でも雪の予報。


羽田は雪に弱い。


連休です。


飛行機乱れると、たいへん。


鉄道も道路も乱れそう。


計画のない方は動かないのが大吉。


すでに外出を余儀なくされている方は、天気を調べ、代替手段を常に考えるのが吉。



 
ブログランキングに参加しています。
にほんブログ村 環境ブログ 天気・気象学へ
にほんブログ村
応援クリックをおねがします。


以下、アフィリエイトサイトです。










00:49  |  気象・天気  |  TB(0)  |  CM(0)  |  EDIT  |  Top↑
 | BLOGTOP | 
上記広告は1ヶ月以上更新のないブログに表示されています。新しい記事を書くことで広告を消せます。